Terminal Aerodrome Forecast
Issued by NWS Milwaukee/Sullivan, WI

Home | Current Version | Previous Version | Text Only | Print | Product List | Glossary On
Versions: 1 2 3 4 5 6 7 8 9 10 11 12 13 14 15 16 17 18 19 20 21 22 23 24 25 26 27 28 29 30 31 32 33 34 35 36 37 38 39 40 41 42 43 44 45 46 47 48 49 50
000
FTUS43 KMKX 302337
TAFMKE
TAF
KMKE 302337Z 3100/0106 04004KT P6SM SCT050 OVC070
     FM310200 12004KT P6SM BKN080
     FM310800 02006KT 5SM BR BKN025
     FM311000 01007KT 5SM BR BKN015
     FM311500 34006KT P6SM SCT030
     FM311900 09007KT P6SM SCT035
     FM010100 15006KT P6SM SCT200
     FM010500 36005KT P6SM SCT250=

USA.gov is the U.S. government's official web portal to all federal, state and local government web resources and services.